createdAt,value
2023-03-11T00:00:52.720Z,980.33
2023-03-11T00:01:52.745Z,980.41
2023-03-11T00:02:52.530Z,980.39
2023-03-11T00:03:52.539Z,980.42
2023-03-11T00:04:52.658Z,980.44
2023-03-11T00:05:52.583Z,980.44
2023-03-11T00:06:52.477Z,980.48
2023-03-11T00:07:52.504Z,980.46
2023-03-11T00:08:52.485Z,980.58
2023-03-11T00:09:52.622Z,980.56
2023-03-11T00:10:52.551Z,980.66
2023-03-11T00:11:52.435Z,980.63
2023-03-11T00:12:52.607Z,980.76
2023-03-11T00:13:52.422Z,980.68
2023-03-11T00:14:52.392Z,980.75
2023-03-11T00:15:52.405Z,980.74
2023-03-11T00:16:52.457Z,980.83
2023-03-11T00:17:52.410Z,980.82
2023-03-11T00:18:52.394Z,980.85
2023-03-11T00:19:52.339Z,980.96
2023-03-11T00:20:52.344Z,981.00
2023-03-11T00:21:52.310Z,981.04
2023-03-11T00:22:52.301Z,981.04
2023-03-11T00:23:52.327Z,981.10
2023-03-11T00:24:52.282Z,981.06
2023-03-11T00:25:52.299Z,981.17
2023-03-11T00:26:52.280Z,981.14
2023-03-11T00:27:52.323Z,981.13
2023-03-11T00:28:52.256Z,981.22
2023-03-11T00:29:52.243Z,981.25
2023-03-11T00:30:52.232Z,981.25
2023-03-11T00:31:52.204Z,981.23
2023-03-11T00:32:52.498Z,981.29
2023-03-11T00:33:52.193Z,981.30
2023-03-11T00:34:52.198Z,981.32
2023-03-11T00:35:52.217Z,981.33
2023-03-11T00:36:52.228Z,981.40
2023-03-11T00:37:52.272Z,981.35
2023-03-11T00:38:52.195Z,981.37
2023-03-11T00:39:52.125Z,981.40
2023-03-11T00:40:52.123Z,981.38
2023-03-11T00:41:52.114Z,981.46
2023-03-11T00:42:52.074Z,981.42
2023-03-11T00:43:52.084Z,981.45
2023-03-11T00:44:52.113Z,981.51
2023-03-11T00:45:52.107Z,981.57
2023-03-11T00:46:52.172Z,981.51
2023-03-11T00:47:52.018Z,981.59
2023-03-11T00:48:52.045Z,981.55
2023-03-11T00:49:51.995Z,981.61
2023-03-11T00:50:51.984Z,981.65
2023-03-11T00:51:52.032Z,981.70
2023-03-11T00:52:52.072Z,981.72
2023-03-11T00:53:51.975Z,981.68
2023-03-11T00:54:51.945Z,981.63
2023-03-11T00:55:51.927Z,981.75
2023-03-11T00:56:52.120Z,981.73
2023-03-11T00:57:51.906Z,981.73
2023-03-11T00:58:51.916Z,981.71
2023-03-11T00:59:51.964Z,981.79
2023-03-11T01:00:52.029Z,981.81
2023-03-11T01:01:51.891Z,981.81
2023-03-11T01:02:51.891Z,981.84
2023-03-11T01:03:51.832Z,981.86
2023-03-11T01:04:51.925Z,981.83
2023-03-11T01:05:51.919Z,981.94
2023-03-11T01:06:51.841Z,981.89
2023-03-11T01:07:51.794Z,982.03
2023-03-11T01:08:51.813Z,981.94
2023-03-11T01:09:51.857Z,982.02
2023-03-11T01:10:51.868Z,982.01
2023-03-11T01:11:51.775Z,982.10
2023-03-11T01:12:51.737Z,982.10
2023-03-11T01:13:51.731Z,982.10
2023-03-11T01:14:51.852Z,982.10
2023-03-11T01:15:51.923Z,982.17
2023-03-11T01:16:51.754Z,982.12
2023-03-11T01:17:51.753Z,982.16
2023-03-11T01:18:51.774Z,982.19
2023-03-11T01:19:51.665Z,982.16
2023-03-11T01:20:51.654Z,982.14
2023-03-11T01:21:51.703Z,982.13
2023-03-11T01:22:51.672Z,982.16
2023-03-11T01:23:51.747Z,982.25
2023-03-11T01:24:51.630Z,982.19
2023-03-11T01:25:51.643Z,982.27
2023-03-11T01:26:51.658Z,982.32
2023-03-11T01:27:51.712Z,982.31
2023-03-11T01:28:51.650Z,982.33
2023-03-11T01:29:51.560Z,982.35
2023-03-11T01:30:51.662Z,982.45
2023-03-11T01:31:51.614Z,982.32
2023-03-11T01:32:51.698Z,982.40
2023-03-11T01:33:51.667Z,982.37
2023-03-11T01:34:51.639Z,982.45
2023-03-11T01:35:51.708Z,982.50
2023-03-11T01:36:51.619Z,982.53
2023-03-11T01:37:51.469Z,982.56
2023-03-11T01:38:51.443Z,982.60
2023-03-11T01:39:51.452Z,982.67
2023-03-11T01:40:51.473Z,982.60
2023-03-11T01:41:51.434Z,982.70
2023-03-11T01:42:51.409Z,982.67
2023-03-11T01:43:51.389Z,982.73
2023-03-11T01:44:51.405Z,982.78
2023-03-11T01:45:51.390Z,982.78
2023-03-11T01:46:51.593Z,982.78
2023-03-11T01:47:51.354Z,982.75
2023-03-11T01:48:51.399Z,982.74
2023-03-11T01:49:51.434Z,982.83
2023-03-11T01:50:51.309Z,982.86
2023-03-11T01:51:51.327Z,982.85
2023-03-11T01:52:51.287Z,983.01
2023-03-11T01:53:51.432Z,982.98
2023-03-11T01:54:51.982Z,983.00
2023-03-11T01:55:51.358Z,983.05
2023-03-11T01:56:51.277Z,983.00
2023-03-11T01:57:51.317Z,983.07
2023-03-11T01:58:51.352Z,983.11
2023-03-11T01:59:51.288Z,983.16
2023-03-11T02:00:51.375Z,983.18
2023-03-11T02:01:51.248Z,983.18
2023-03-11T02:02:51.286Z,983.22
2023-03-11T02:03:51.191Z,983.18
2023-03-11T02:04:51.176Z,983.19
2023-03-11T02:05:51.165Z,983.30
2023-03-11T02:06:53.717Z,983.30
2023-03-11T02:07:51.212Z,983.36
2023-03-11T02:08:51.194Z,983.33
2023-03-11T02:09:51.137Z,983.34
2023-03-11T02:10:51.220Z,983.40
2023-03-11T02:11:51.109Z,983.44
2023-03-11T02:12:51.070Z,983.40
2023-03-11T02:13:51.155Z,983.38
2023-03-11T02:14:51.162Z,983.38
2023-03-11T02:15:51.151Z,983.45
2023-03-11T02:16:51.092Z,983.49
2023-03-11T02:17:51.070Z,983.49
2023-03-11T02:18:51.000Z,983.49
2023-03-11T02:19:51.112Z,983.51
2023-03-11T02:20:51.166Z,983.50
2023-03-11T02:21:51.022Z,983.50
2023-03-11T02:22:50.957Z,983.48
2023-03-11T02:23:51.057Z,983.53
2023-03-11T02:24:51.112Z,983.48
2023-03-11T02:25:50.934Z,983.50
2023-03-11T02:26:50.941Z,983.52
2023-03-11T02:27:50.942Z,983.54
2023-03-11T02:28:50.955Z,983.54
2023-03-11T02:29:50.884Z,983.56
2023-03-11T02:30:50.998Z,983.55
2023-03-11T02:31:50.934Z,983.59
2023-03-11T02:32:50.940Z,983.55
2023-03-11T02:33:50.955Z,983.60
2023-03-11T02:34:50.833Z,983.57
2023-03-11T02:35:50.991Z,983.51
2023-03-11T02:36:50.922Z,983.60
2023-03-11T02:37:50.895Z,983.58
2023-03-11T02:38:50.802Z,983.55
2023-03-11T02:39:50.776Z,983.60
2023-03-11T02:40:50.793Z,983.65
2023-03-11T02:41:50.791Z,983.68
2023-03-11T02:42:50.746Z,983.65
2023-03-11T02:43:50.901Z,983.66
2023-03-11T02:44:50.763Z,983.67
2023-03-11T02:45:50.854Z,983.69
2023-03-11T02:46:50.744Z,983.65
2023-03-11T02:47:50.686Z,983.71
2023-03-11T02:48:50.693Z,983.64
2023-03-11T02:49:50.671Z,983.71
2023-03-11T02:50:50.671Z,983.77
2023-03-11T02:51:50.682Z,983.75
2023-03-11T02:52:50.622Z,983.80
2023-03-11T02:53:50.655Z,983.82
2023-03-11T02:54:50.643Z,983.80
2023-03-11T02:55:50.594Z,983.91
2023-03-11T02:56:50.778Z,983.90
2023-03-11T02:57:50.584Z,983.85
2023-03-11T02:58:50.701Z,983.89
2023-03-11T02:59:50.550Z,983.96
2023-03-11T03:00:50.553Z,983.96
2023-03-11T03:01:50.688Z,984.00
2023-03-11T03:02:50.551Z,983.95
2023-03-11T03:03:50.551Z,983.89
2023-03-11T03:04:50.497Z,983.92
2023-03-11T03:05:50.478Z,983.96
2023-03-11T03:06:50.641Z,983.92
2023-03-11T03:07:50.466Z,983.88
2023-03-11T03:08:50.588Z,983.87
2023-03-11T03:09:50.457Z,983.90
2023-03-11T03:10:50.435Z,983.91
2023-03-11T03:11:50.412Z,983.93
2023-03-11T03:12:50.558Z,983.92
2023-03-11T03:13:50.489Z,984.00
2023-03-11T03:14:50.431Z,983.97
2023-03-11T03:15:50.502Z,983.91
2023-03-11T03:16:50.578Z,983.97
2023-03-11T03:17:50.510Z,984.04
2023-03-11T03:18:50.400Z,984.08
2023-03-11T03:19:50.342Z,984.12
2023-03-11T03:20:50.402Z,984.11
2023-03-11T03:21:50.334Z,984.13
2023-03-11T03:22:50.435Z,984.14
2023-03-11T03:23:50.376Z,984.17
2023-03-11T03:24:50.271Z,984.21
2023-03-11T03:25:50.359Z,984.22
2023-03-11T03:26:50.259Z,984.26
2023-03-11T03:27:50.248Z,984.28
2023-03-11T03:28:50.322Z,984.28
2023-03-11T03:29:50.337Z,984.25
2023-03-11T03:30:50.204Z,984.27
2023-03-11T03:31:50.304Z,984.32
2023-03-11T03:32:50.238Z,984.30
2023-03-11T03:33:50.275Z,984.30
2023-03-11T03:34:50.226Z,984.35
2023-03-11T03:35:50.208Z,984.40
2023-03-11T03:36:50.131Z,984.35
2023-03-11T03:37:50.187Z,984.40
2023-03-11T03:38:50.147Z,984.43
2023-03-11T03:39:50.099Z,984.36
2023-03-11T03:40:50.188Z,984.37
2023-03-11T03:41:50.187Z,984.44
2023-03-11T03:42:50.062Z,984.53
2023-03-11T03:43:50.087Z,984.60
2023-03-11T03:44:50.045Z,984.53
2023-03-11T03:45:50.202Z,984.60
2023-03-11T03:46:50.218Z,984.58
2023-03-11T03:47:50.008Z,984.64
2023-03-11T03:48:50.001Z,984.68
2023-03-11T03:49:50.187Z,984.67
2023-03-11T03:50:49.996Z,984.67
2023-03-11T03:51:50.077Z,984.69
2023-03-11T03:52:50.086Z,984.77
2023-03-11T03:53:49.954Z,984.83
2023-03-11T03:54:49.981Z,984.84
2023-03-11T03:55:49.948Z,984.91
2023-03-11T03:56:49.923Z,984.87
2023-03-11T03:57:49.931Z,984.97
2023-03-11T03:58:49.938Z,985.01
2023-03-11T03:59:49.902Z,985.03
2023-03-11T04:00:49.867Z,985.01
2023-03-11T04:01:49.920Z,984.95
2023-03-11T04:02:49.928Z,985.04
2023-03-11T04:03:49.939Z,985.00
2023-03-11T04:04:49.852Z,984.99
2023-03-11T04:05:49.815Z,985.08
2023-03-11T04:06:49.813Z,985.07
2023-03-11T04:07:49.799Z,985.14
2023-03-11T04:08:49.780Z,985.16
2023-03-11T04:09:49.849Z,985.19
2023-03-11T04:10:49.757Z,985.16
2023-03-11T04:11:49.784Z,985.19
2023-03-11T04:12:49.769Z,985.27
2023-03-11T04:13:49.741Z,985.31
2023-03-11T04:14:49.715Z,985.27
2023-03-11T04:15:49.859Z,985.29
2023-03-11T04:16:49.808Z,985.31
2023-03-11T04:17:49.706Z,985.29
2023-03-11T04:18:49.674Z,985.32
2023-03-11T04:19:49.829Z,985.31
2023-03-11T04:20:49.761Z,985.31
2023-03-11T04:21:49.636Z,985.30
2023-03-11T04:22:49.630Z,985.31
2023-03-11T04:23:49.615Z,985.35
2023-03-11T04:24:49.690Z,985.28
2023-03-11T04:25:49.712Z,985.30
2023-03-11T04:26:49.624Z,985.31
2023-03-11T04:27:49.654Z,985.33
2023-03-11T04:28:49.555Z,985.32
2023-03-11T04:29:49.572Z,985.34
2023-03-11T04:30:49.588Z,985.36
2023-03-11T04:31:49.533Z,985.35
2023-03-11T04:32:49.688Z,985.39
2023-03-11T04:33:49.573Z,985.38
2023-03-11T04:34:49.484Z,985.42
2023-03-11T04:35:49.676Z,985.36
2023-03-11T04:36:49.461Z,985.43
2023-03-11T04:37:49.468Z,985.38
2023-03-11T04:38:49.475Z,985.39
2023-03-11T04:39:49.434Z,985.41
2023-03-11T04:40:49.491Z,985.42
2023-03-11T04:41:49.419Z,985.41
2023-03-11T04:42:49.432Z,985.41
2023-03-11T04:43:49.384Z,985.42
2023-03-11T04:44:49.367Z,985.49
2023-03-11T04:45:57.503Z,985.50
2023-03-11T04:46:49.357Z,985.50
2023-03-11T04:47:49.370Z,985.51
2023-03-11T04:48:49.385Z,985.51
2023-03-11T04:49:49.351Z,985.53
2023-03-11T04:50:49.317Z,985.57
2023-03-11T04:51:49.346Z,985.63
2023-03-11T04:52:49.328Z,985.63
2023-03-11T04:53:49.306Z,985.65
2023-03-11T04:54:49.273Z,985.66
2023-03-11T04:55:49.282Z,985.74
2023-03-11T04:56:49.295Z,985.69
2023-03-11T04:57:49.223Z,985.73
2023-03-11T04:58:49.228Z,985.74
2023-03-11T04:59:49.200Z,985.81
2023-03-11T05:00:49.229Z,985.84
2023-03-11T05:01:49.322Z,985.79
2023-03-11T05:02:49.170Z,985.81
2023-03-11T05:03:49.167Z,985.85
2023-03-11T05:04:49.302Z,985.83
2023-03-11T05:05:49.145Z,985.88
2023-03-11T05:06:49.133Z,985.85
2023-03-11T05:07:49.145Z,985.86
2023-03-11T05:08:49.160Z,985.86
2023-03-11T05:09:49.095Z,985.86
2023-03-11T05:10:49.077Z,985.92
2023-03-11T05:11:49.101Z,985.91
2023-03-11T05:12:49.089Z,985.91
2023-03-11T05:13:49.053Z,985.93
2023-03-11T05:14:49.062Z,985.95
2023-03-11T05:15:49.079Z,985.93
2023-03-11T05:16:49.054Z,985.92
2023-03-11T05:17:49.033Z,985.98
2023-03-11T05:18:49.013Z,985.96
2023-03-11T05:19:48.986Z,985.97
2023-03-11T05:20:48.990Z,985.98
2023-03-11T05:21:48.981Z,985.99
2023-03-11T05:22:48.974Z,986.01
2023-03-11T05:23:48.961Z,986.01
2023-03-11T05:24:49.065Z,986.01
2023-03-11T05:25:48.945Z,986.03
2023-03-11T05:26:48.923Z,986.00
2023-03-11T05:27:48.930Z,986.00
2023-03-11T05:28:48.966Z,986.05
2023-03-11T05:29:48.884Z,986.13
2023-03-11T05:30:48.910Z,986.17
2023-03-11T05:31:48.856Z,986.16
2023-03-11T05:32:48.974Z,986.18
2023-03-11T05:33:48.847Z,986.17
2023-03-11T05:34:48.840Z,986.19
2023-03-11T05:35:48.834Z,986.20
2023-03-11T05:36:48.796Z,986.27
2023-03-11T05:37:48.793Z,986.23
2023-03-11T05:38:48.779Z,986.24
2023-03-11T05:39:48.790Z,986.30
2023-03-11T05:40:48.763Z,986.30
2023-03-11T05:41:48.758Z,986.35
2023-03-11T05:42:48.755Z,986.31
2023-03-11T05:43:48.730Z,986.33
2023-03-11T05:44:48.742Z,986.37
2023-03-11T05:45:48.704Z,986.39
2023-03-11T05:46:48.769Z,986.39
2023-03-11T05:47:48.675Z,986.37
2023-03-11T05:48:48.678Z,986.41
2023-03-11T05:49:48.692Z,986.41
2023-03-11T05:50:48.654Z,986.46
2023-03-11T05:51:48.659Z,986.45
2023-03-11T05:52:48.657Z,986.48
2023-03-11T05:53:48.758Z,986.52
2023-03-11T05:54:48.626Z,986.47
2023-03-11T05:55:48.668Z,986.54
2023-03-11T05:56:48.577Z,986.51
2023-03-11T05:57:48.586Z,986.54
2023-03-11T05:58:48.596Z,986.53
2023-03-11T05:59:48.542Z,986.56
2023-03-11T06:00:48.542Z,986.56
2023-03-11T06:01:48.540Z,986.57
2023-03-11T06:02:48.520Z,986.55
2023-03-11T06:03:48.605Z,986.61
2023-03-11T06:04:48.633Z,986.68
2023-03-11T06:05:48.518Z,986.66
2023-03-11T06:06:48.473Z,986.68
2023-03-11T06:07:48.449Z,986.70
2023-03-11T06:08:48.449Z,986.71
2023-03-11T06:09:48.423Z,986.69
2023-03-11T06:10:49.121Z,986.79
2023-03-11T06:11:48.409Z,986.67
2023-03-11T06:12:48.400Z,986.72
2023-03-11T06:13:48.392Z,986.74
2023-03-11T06:14:48.392Z,986.67
2023-03-11T06:15:48.396Z,986.72
2023-03-11T06:16:48.350Z,986.77
2023-03-11T06:17:48.344Z,986.76
2023-03-11T06:18:48.333Z,986.71
2023-03-11T06:19:48.341Z,986.79
2023-03-11T06:20:48.328Z,986.80
2023-03-11T06:21:48.317Z,986.84
2023-03-11T06:22:48.307Z,986.90
2023-03-11T06:23:48.291Z,986.87
2023-03-11T06:24:48.290Z,986.90
2023-03-11T06:25:48.256Z,986.92
2023-03-11T06:26:48.255Z,986.92
2023-03-11T06:27:48.226Z,986.92
2023-03-11T06:28:48.235Z,986.95
2023-03-11T06:29:48.771Z,986.93
2023-03-11T06:30:48.217Z,986.99
2023-03-11T06:31:48.252Z,986.98
2023-03-11T06:32:48.250Z,987.05
2023-03-11T06:33:48.204Z,987.02
2023-03-11T06:34:48.151Z,987.04
2023-03-11T06:35:48.248Z,987.08
2023-03-11T06:36:48.159Z,987.16
2023-03-11T06:37:48.142Z,987.15
2023-03-11T06:38:48.110Z,987.19
2023-03-11T06:39:48.098Z,987.23
2023-03-11T06:40:48.091Z,987.22
2023-03-11T06:41:48.101Z,987.18
2023-03-11T06:42:48.084Z,987.19
2023-03-11T06:43:48.079Z,987.24
2023-03-11T06:44:48.038Z,987.26
2023-03-11T06:45:48.104Z,987.26
2023-03-11T06:46:48.022Z,987.27
2023-03-11T06:47:48.035Z,987.29
2023-03-11T06:48:48.007Z,987.25
2023-03-11T06:49:48.015Z,987.28
2023-03-11T06:50:48.525Z,987.30
2023-03-11T06:51:47.966Z,987.32
2023-03-11T06:52:47.967Z,987.37
2023-03-11T06:53:47.994Z,987.40
2023-03-11T06:54:47.936Z,987.40
2023-03-11T06:55:47.915Z,987.42
2023-03-11T06:56:47.997Z,987.45
2023-03-11T06:57:47.899Z,987.48
2023-03-11T06:58:47.907Z,987.48
2023-03-11T06:59:47.877Z,987.50
2023-03-11T07:00:47.915Z,987.49
2023-03-11T07:01:47.851Z,987.51
2023-03-11T07:02:47.864Z,987.53
2023-03-11T07:03:47.885Z,987.53
2023-03-11T07:04:47.821Z,987.54
2023-03-11T07:05:47.820Z,987.56
2023-03-11T07:06:47.836Z,987.58
2023-03-11T07:07:47.783Z,987.66
2023-03-11T07:08:47.778Z,987.66
2023-03-11T07:09:47.784Z,987.61
2023-03-11T07:10:47.750Z,987.69
2023-03-11T07:11:47.865Z,987.75
2023-03-11T07:12:47.729Z,987.73
2023-03-11T07:13:47.743Z,987.76
2023-03-11T07:14:47.740Z,987.78
2023-03-11T07:15:47.693Z,987.78
2023-03-11T07:16:47.820Z,987.80
2023-03-11T07:17:47.676Z,987.82
2023-03-11T07:18:47.674Z,987.86
2023-03-11T07:19:47.668Z,987.85
2023-03-11T07:20:47.643Z,987.88
2023-03-11T07:21:47.654Z,987.85
2023-03-11T07:22:47.626Z,987.83
2023-03-11T07:23:47.625Z,987.88
2023-03-11T07:24:47.604Z,987.92
2023-03-11T07:25:47.623Z,987.89
2023-03-11T07:26:47.596Z,987.91
2023-03-11T07:27:47.578Z,987.89
2023-03-11T07:28:47.566Z,987.89
2023-03-11T07:29:47.577Z,987.90
2023-03-11T07:30:47.529Z,987.92
2023-03-11T07:31:47.600Z,987.93
2023-03-11T07:32:47.538Z,987.91
2023-03-11T07:33:47.567Z,987.95
2023-03-11T07:34:47.505Z,987.95
2023-03-11T07:35:47.525Z,987.93
2023-03-11T07:36:47.469Z,987.94
2023-03-11T07:37:47.464Z,987.97
2023-03-11T07:38:47.467Z,987.92
2023-03-11T07:39:47.439Z,987.92
2023-03-11T07:40:47.413Z,987.98
2023-03-11T07:41:47.446Z,987.97
2023-03-11T07:42:47.394Z,987.97
2023-03-11T07:43:47.385Z,987.97
2023-03-11T07:44:47.375Z,987.98
2023-03-11T07:45:47.397Z,988.00
2023-03-11T07:46:47.384Z,988.01
2023-03-11T07:47:47.364Z,988.00
2023-03-11T07:48:47.341Z,988.00
2023-03-11T07:49:47.318Z,988.03
2023-03-11T07:50:47.322Z,988.07
2023-03-11T07:51:47.314Z,988.11
2023-03-11T07:52:47.292Z,988.13
2023-03-11T07:53:47.311Z,988.15
2023-03-11T07:54:47.271Z,988.17
2023-03-11T07:55:47.241Z,988.23
2023-03-11T07:56:47.247Z,988.22
2023-03-11T07:57:47.243Z,988.29
2023-03-11T07:58:47.262Z,988.28
2023-03-11T07:59:47.209Z,988.30
2023-03-11T08:00:47.205Z,988.36
2023-03-11T08:01:47.407Z,988.32
2023-03-11T08:02:47.261Z,988.34
2023-03-11T08:03:47.296Z,988.35
2023-03-11T08:04:47.144Z,988.35
2023-03-11T08:05:47.304Z,988.38
2023-03-11T08:06:47.129Z,988.35
2023-03-11T08:07:47.120Z,988.38
2023-03-11T08:08:47.122Z,988.42
2023-03-11T08:09:47.134Z,988.43
2023-03-11T08:10:47.111Z,988.35
2023-03-11T08:11:49.481Z,988.40
2023-03-11T08:12:47.058Z,988.37
2023-03-11T08:13:47.229Z,988.39
2023-03-11T08:14:47.067Z,988.48
2023-03-11T08:15:47.089Z,988.45
2023-03-11T08:16:47.021Z,988.49
2023-03-11T08:17:46.994Z,988.52
2023-03-11T08:18:47.016Z,988.51
2023-03-11T08:19:46.982Z,988.54
2023-03-11T08:20:47.032Z,988.61
2023-03-11T08:21:46.977Z,988.63
2023-03-11T08:22:57.630Z,988.66
2023-03-11T08:23:47.959Z,988.68
2023-03-11T08:24:46.927Z,988.73
2023-03-11T08:25:46.943Z,988.73
2023-03-11T08:26:46.911Z,988.73
2023-03-11T08:27:46.923Z,988.78
2023-03-11T08:28:46.892Z,988.79
2023-03-11T08:29:46.886Z,988.80
2023-03-11T08:30:46.915Z,988.85
2023-03-11T08:31:46.842Z,988.89
2023-03-11T08:32:46.947Z,988.92
2023-03-11T08:33:46.825Z,988.92
2023-03-11T08:34:46.811Z,988.99
2023-03-11T08:35:46.837Z,988.98
2023-03-11T08:36:46.818Z,989.03
2023-03-11T08:37:46.786Z,989.05
2023-03-11T08:38:46.867Z,989.06
2023-03-11T08:39:46.765Z,989.04
2023-03-11T08:40:46.776Z,989.02
2023-03-11T08:41:46.742Z,989.08
2023-03-11T08:42:46.767Z,989.12
2023-03-11T08:43:46.706Z,989.15
2023-03-11T08:44:46.724Z,989.15
2023-03-11T08:45:46.742Z,989.13
2023-03-11T08:46:46.819Z,989.24
2023-03-11T08:47:46.692Z,989.22
2023-03-11T08:48:46.655Z,989.28
2023-03-11T08:49:46.647Z,989.28
2023-03-11T08:50:53.758Z,989.26
2023-03-11T08:51:47.626Z,989.28
2023-03-11T08:52:46.636Z,989.27
2023-03-11T08:53:46.610Z,989.33
2023-03-11T08:54:46.579Z,989.33
2023-03-11T08:55:46.575Z,989.40
2023-03-11T08:56:46.594Z,989.40
2023-03-11T08:57:46.551Z,989.41
2023-03-11T08:58:46.560Z,989.41
2023-03-11T08:59:46.541Z,989.46
2023-03-11T09:00:46.532Z,989.50
2023-03-11T09:01:46.527Z,989.43
2023-03-11T09:02:46.517Z,989.47
2023-03-11T09:03:46.507Z,989.49
2023-03-11T09:04:46.477Z,989.49
2023-03-11T09:05:46.486Z,989.49
2023-03-11T09:06:46.498Z,989.52
2023-03-11T09:07:46.450Z,989.44
2023-03-11T09:08:46.444Z,989.46
2023-03-11T09:09:46.418Z,989.43
2023-03-11T09:10:46.427Z,989.53
2023-03-11T09:11:46.431Z,989.53
2023-03-11T09:12:46.385Z,989.49
2023-03-11T09:13:46.407Z,989.54
2023-03-11T09:14:46.368Z,989.61
2023-03-11T09:15:46.352Z,989.63
2023-03-11T09:16:46.349Z,989.60
2023-03-11T09:17:46.371Z,989.62
2023-03-11T09:18:46.320Z,989.59
2023-03-11T09:19:46.524Z,989.63
2023-03-11T09:20:46.303Z,989.64
2023-03-11T09:21:46.312Z,989.63
2023-03-11T09:22:46.286Z,989.64
2023-03-11T09:23:46.282Z,989.63
2023-03-11T09:24:46.257Z,989.65
2023-03-11T09:25:46.245Z,989.67
2023-03-11T09:26:46.247Z,989.66
2023-03-11T09:27:46.232Z,989.60
2023-03-11T09:28:46.207Z,989.62
2023-03-11T09:29:46.197Z,989.64
2023-03-11T09:30:46.200Z,989.62
2023-03-11T09:31:46.251Z,989.69
2023-03-11T09:32:46.226Z,989.69
2023-03-11T09:33:46.205Z,989.69
2023-03-11T09:34:46.141Z,989.68
2023-03-11T09:35:46.231Z,989.68
2023-03-11T09:36:46.143Z,989.69
2023-03-11T09:37:46.120Z,989.78
2023-03-11T09:38:46.364Z,989.80
2023-03-11T09:39:46.078Z,989.80
2023-03-11T09:40:47.117Z,989.80
2023-03-11T09:41:57.463Z,989.83
2023-03-11T09:42:47.050Z,989.88
2023-03-11T09:43:46.055Z,989.89
2023-03-11T09:44:46.052Z,989.92
2023-03-11T09:45:46.019Z,989.89
2023-03-11T09:46:46.103Z,989.90
2023-03-11T09:47:46.004Z,989.94
2023-03-11T09:48:45.980Z,989.92
2023-03-11T09:49:46.013Z,989.95
2023-03-11T09:50:45.994Z,989.93
2023-03-11T09:51:45.951Z,989.97
2023-03-11T09:52:45.949Z,989.97
2023-03-11T09:53:45.981Z,990.00
2023-03-11T09:54:45.940Z,990.03
2023-03-11T09:55:45.939Z,990.04
2023-03-11T09:56:45.939Z,990.03
2023-03-11T09:57:45.885Z,990.04
2023-03-11T09:58:45.869Z,990.01
2023-03-11T09:59:45.857Z,990.05
2023-03-11T10:00:45.852Z,989.97
2023-03-11T10:01:45.872Z,989.98
2023-03-11T10:02:46.070Z,989.96
2023-03-11T10:03:45.821Z,990.01
2023-03-11T10:04:45.832Z,990.03
2023-03-11T10:05:45.855Z,990.00
2023-03-11T10:06:45.813Z,990.04
2023-03-11T10:07:45.768Z,990.03
2023-03-11T10:08:45.754Z,990.02
2023-03-11T10:09:45.750Z,990.09
2023-03-11T10:10:45.760Z,990.07
2023-03-11T10:11:45.718Z,990.08
2023-03-11T10:12:45.737Z,990.06
2023-03-11T10:13:45.701Z,990.10
2023-03-11T10:14:45.708Z,990.09
2023-03-11T10:15:45.680Z,990.10
2023-03-11T10:16:45.701Z,990.00
2023-03-11T10:17:45.659Z,990.04
2023-03-11T10:18:45.640Z,990.00
2023-03-11T10:19:45.645Z,989.96
2023-03-11T10:20:45.630Z,990.04
2023-03-11T10:21:45.653Z,990.06
2023-03-11T10:22:45.638Z,990.02
2023-03-11T10:23:45.599Z,990.00
2023-03-11T10:24:46.291Z,989.99
2023-03-11T10:25:45.567Z,990.05
2023-03-11T10:26:45.572Z,990.03
2023-03-11T10:27:45.591Z,990.02
2023-03-11T10:28:45.597Z,990.03
2023-03-11T10:29:45.542Z,990.00
2023-03-11T10:30:45.507Z,990.00
2023-03-11T10:31:45.526Z,990.03
2023-03-11T10:32:45.508Z,990.01
2023-03-11T10:33:47.739Z,990.06
2023-03-11T10:34:45.467Z,990.08
2023-03-11T10:35:45.470Z,990.12
2023-03-11T10:36:45.463Z,990.04
2023-03-11T10:37:49.745Z,990.11
2023-03-11T10:38:45.411Z,990.06
2023-03-11T10:39:45.442Z,990.10
2023-03-11T10:40:45.418Z,990.10
2023-03-11T10:41:45.409Z,990.11
2023-03-11T10:42:45.379Z,990.10
2023-03-11T10:43:45.364Z,990.11
2023-03-11T10:44:45.367Z,990.09
2023-03-11T10:45:45.402Z,990.15
2023-03-11T10:46:45.488Z,990.12
2023-03-11T10:47:45.358Z,990.18
2023-03-11T10:48:45.304Z,990.10
2023-03-11T10:49:45.324Z,990.08
2023-03-11T10:50:45.286Z,990.10
2023-03-11T10:51:45.287Z,990.14
2023-03-11T10:52:45.279Z,990.09
2023-03-11T10:53:45.265Z,990.10
2023-03-11T10:54:45.236Z,990.08
2023-03-11T10:55:45.257Z,990.15
2023-03-11T10:56:45.212Z,990.13
2023-03-11T10:57:45.225Z,990.12
2023-03-11T10:58:45.192Z,990.14
2023-03-11T10:59:45.182Z,990.10
2023-03-11T11:00:45.179Z,990.12
2023-03-11T11:01:45.189Z,990.12
2023-03-11T11:02:45.151Z,990.14
2023-03-11T11:03:45.154Z,990.15
2023-03-11T11:04:45.132Z,990.19
2023-03-11T11:05:45.115Z,990.21
2023-03-11T11:06:45.125Z,990.16
2023-03-11T11:07:45.125Z,990.14
2023-03-11T11:08:45.087Z,990.20
2023-03-11T11:09:45.112Z,990.26
2023-03-11T11:10:45.059Z,990.20
2023-03-11T11:11:45.065Z,990.15
2023-03-11T11:12:45.064Z,990.17
2023-03-11T11:13:45.033Z,990.27
2023-03-11T11:14:45.026Z,990.19
2023-03-11T11:15:45.001Z,990.22
2023-03-11T11:16:45.044Z,990.26
2023-03-11T11:17:45.019Z,990.17
2023-03-11T11:18:44.972Z,990.17
2023-03-11T11:19:44.968Z,990.16
2023-03-11T11:20:44.977Z,990.19
2023-03-11T11:21:44.939Z,990.28
2023-03-11T11:22:44.934Z,990.27
2023-03-11T11:23:45.002Z,990.33
2023-03-11T11:24:44.908Z,990.31
2023-03-11T11:25:44.932Z,990.25
2023-03-11T11:26:45.007Z,990.33
2023-03-11T11:27:44.867Z,990.31
2023-03-11T11:28:44.921Z,990.28
2023-03-11T11:29:44.859Z,990.31
2023-03-11T11:30:44.927Z,990.32
2023-03-11T11:31:44.835Z,990.34
2023-03-11T11:32:45.012Z,990.30
2023-03-11T11:33:44.808Z,990.36
2023-03-11T11:34:44.809Z,990.37
2023-03-11T11:35:44.838Z,990.31
2023-03-11T11:36:44.784Z,990.32
2023-03-11T11:37:44.755Z,990.37
2023-03-11T11:38:44.763Z,990.37
2023-03-11T11:39:44.731Z,990.36
2023-03-11T11:40:44.737Z,990.29
2023-03-11T11:41:44.748Z,990.31
2023-03-11T11:42:44.711Z,990.31
2023-03-11T11:43:44.700Z,990.42
2023-03-11T11:44:44.701Z,990.32
2023-03-11T11:45:44.701Z,990.31
2023-03-11T11:46:44.654Z,990.27
2023-03-11T11:47:44.635Z,990.26
2023-03-11T11:48:44.641Z,990.28
2023-03-11T11:49:44.664Z,990.27
2023-03-11T11:50:44.605Z,990.30
2023-03-11T11:51:44.614Z,990.34
2023-03-11T11:52:45.226Z,990.29
2023-03-11T11:53:44.579Z,990.33
2023-03-11T11:54:44.566Z,990.33
2023-03-11T11:55:44.575Z,990.36
2023-03-11T11:56:44.557Z,990.32
2023-03-11T11:57:44.565Z,990.27
2023-03-11T11:58:44.560Z,990.31
2023-03-11T11:59:44.567Z,990.30
2023-03-11T12:00:44.551Z,990.29
2023-03-11T12:01:44.489Z,990.34
2023-03-11T12:02:44.528Z,990.29
2023-03-11T12:03:44.523Z,990.33
2023-03-11T12:04:44.444Z,990.38
2023-03-11T12:05:44.513Z,990.33
2023-03-11T12:06:44.426Z,990.27
2023-03-11T12:07:44.414Z,990.29
2023-03-11T12:08:44.423Z,990.28
2023-03-11T12:09:44.398Z,990.27
2023-03-11T12:10:44.396Z,990.32
2023-03-11T12:11:44.418Z,990.26
2023-03-11T12:12:44.372Z,990.26
2023-03-11T12:13:44.360Z,990.28
2023-03-11T12:14:44.335Z,990.32
2023-03-11T12:15:44.429Z,990.36
2023-03-11T12:16:44.333Z,990.36
2023-03-11T12:17:44.302Z,990.35
2023-03-11T12:18:44.287Z,990.33
2023-03-11T12:19:44.297Z,990.37
2023-03-11T12:20:44.285Z,990.34
2023-03-11T12:21:44.254Z,990.36
2023-03-11T12:22:44.263Z,990.45
2023-03-11T12:23:44.289Z,990.45
2023-03-11T12:24:44.216Z,990.33
2023-03-11T12:25:44.249Z,990.32
2023-03-11T12:26:44.198Z,990.35
2023-03-11T12:27:44.208Z,990.37
2023-03-11T12:28:44.182Z,990.38